createdAt,value
2023-04-06T00:00:58.906Z,47.99
2023-04-06T00:03:29.122Z,47.91
2023-04-06T00:05:58.321Z,47.89
2023-04-06T00:08:27.824Z,47.96
2023-04-06T00:10:56.128Z,47.94
2023-04-06T00:13:29.205Z,47.98
2023-04-06T00:15:57.882Z,48.12
2023-04-06T00:18:25.930Z,48.24
2023-04-06T00:20:54.376Z,48.34
2023-04-06T00:23:22.987Z,48.33
2023-04-06T00:25:51.647Z,48.23
2023-04-06T00:28:26.553Z,48.15
2023-04-06T00:30:56.677Z,48.12
2023-04-06T00:33:25.820Z,48.20
2023-04-06T00:35:54.207Z,48.35
2023-04-06T00:38:23.939Z,48.29
2023-04-06T00:40:52.093Z,48.45
2023-04-06T00:43:21.974Z,48.42
2023-04-06T00:45:50.498Z,48.38
2023-04-06T00:48:19.930Z,48.34
2023-04-06T00:50:48.125Z,48.24
2023-04-06T00:53:17.433Z,48.15
2023-04-06T00:55:46.864Z,48.07
2023-04-06T00:58:16.026Z,48.00
2023-04-06T01:00:53.624Z,47.95
2023-04-06T01:03:24.347Z,47.81
2023-04-06T01:05:59.273Z,47.81
2023-04-06T01:08:33.146Z,47.89
2023-04-06T01:11:13.195Z,47.79
2023-04-06T01:13:41.543Z,47.66
2023-04-06T01:16:17.167Z,47.65
2023-04-06T01:19:12.192Z,47.55
2023-04-06T01:21:43.556Z,47.73
2023-04-06T01:24:18.910Z,47.60
2023-04-06T01:27:06.346Z,47.62
2023-04-06T01:29:53.070Z,47.61
2023-04-06T01:32:48.278Z,47.42
2023-04-06T01:35:20.679Z,47.43
2023-04-06T01:38:04.870Z,47.36
2023-04-06T01:40:35.650Z,47.34
2023-04-06T01:43:04.200Z,47.26
2023-04-06T01:45:37.186Z,47.22
2023-04-06T01:48:14.345Z,47.19
2023-04-06T01:50:42.698Z,47.06
2023-04-06T01:53:11.921Z,47.08
2023-04-06T01:55:40.736Z,46.99
2023-04-06T01:58:31.893Z,46.99
2023-04-06T02:01:00.501Z,47.06
2023-04-06T02:03:32.615Z,46.99
2023-04-06T02:06:07.213Z,46.98
2023-04-06T02:08:38.723Z,47.18
2023-04-06T02:11:07.262Z,47.14
2023-04-06T02:13:41.108Z,47.11
2023-04-06T02:16:10.985Z,47.29
2023-04-06T02:18:39.506Z,47.25
2023-04-06T02:21:07.855Z,47.42
2023-04-06T02:23:36.068Z,47.44
2023-04-06T02:26:04.733Z,47.50
2023-04-06T02:28:36.041Z,47.58
2023-04-06T02:31:04.330Z,47.57
2023-04-06T02:33:33.146Z,47.39
2023-04-06T02:36:02.472Z,47.48
2023-04-06T02:38:31.614Z,47.56
2023-04-06T02:41:01.575Z,47.53
2023-04-06T02:43:31.352Z,47.65
2023-04-06T02:46:05.878Z,47.67
2023-04-06T02:48:38.399Z,47.64
2023-04-06T02:51:07.367Z,47.72
2023-04-06T02:53:36.317Z,47.77
2023-04-06T02:56:05.309Z,47.73
2023-04-06T02:58:42.492Z,47.77
2023-04-06T03:01:10.805Z,47.79
2023-04-06T03:03:39.991Z,47.75
2023-04-06T03:06:10.575Z,47.68
2023-04-06T03:08:41.164Z,47.72
2023-04-06T03:11:11.678Z,47.73
2023-04-06T03:13:41.147Z,47.73
2023-04-06T03:16:13.440Z,47.69
2023-04-06T03:18:42.864Z,47.74
2023-04-06T03:21:12.165Z,47.75
2023-04-06T03:23:52.246Z,47.68
2023-04-06T03:26:20.849Z,47.60
2023-04-06T03:28:48.974Z,47.53
2023-04-06T03:31:20.583Z,47.43
2023-04-06T03:33:56.764Z,47.29
2023-04-06T03:36:28.205Z,47.31
2023-04-06T03:38:59.421Z,47.13
2023-04-06T03:41:28.283Z,47.16
2023-04-06T03:44:06.930Z,47.07
2023-04-06T03:46:36.905Z,47.04
2023-04-06T03:49:05.793Z,47.25
2023-04-06T03:51:34.916Z,47.11
2023-04-06T03:54:03.574Z,47.12
2023-04-06T03:56:31.810Z,46.95
2023-04-06T04:00:41.013Z,49.84
2023-04-06T04:03:08.794Z,47.34
2023-04-06T04:05:36.372Z,47.03
2023-04-06T04:08:04.047Z,46.79
2023-04-06T04:10:31.744Z,46.75
2023-04-06T04:12:58.499Z,46.64
2023-04-06T04:15:29.045Z,46.59
2023-04-06T04:17:57.379Z,46.49
2023-04-06T04:28:26.126Z,46.24
2023-04-06T04:30:55.264Z,46.21
2023-04-06T04:33:22.984Z,46.34
2023-04-06T04:35:50.710Z,46.22
2023-04-06T04:38:20.094Z,46.06
2023-04-06T04:40:51.409Z,45.93
2023-04-06T04:43:19.651Z,45.95
2023-04-06T04:45:48.322Z,45.86
2023-04-06T04:48:23.685Z,45.88
2023-04-06T04:50:55.566Z,45.56
2023-04-06T04:53:26.333Z,45.47
2023-04-06T04:55:59.243Z,45.44
2023-04-06T04:58:27.792Z,45.40
2023-04-06T05:00:56.890Z,45.13
2023-04-06T05:03:26.308Z,45.18
2023-04-06T05:06:02.311Z,45.25
2023-04-06T05:08:32.234Z,45.07
2023-04-06T05:11:01.018Z,44.95
2023-04-06T05:13:31.243Z,44.73
2023-04-06T05:15:58.805Z,44.77
2023-04-06T05:18:31.521Z,44.80
2023-04-06T05:20:58.875Z,44.84
2023-04-06T05:23:34.916Z,44.79
2023-04-06T05:26:02.455Z,44.60
2023-04-06T05:28:29.996Z,44.63
2023-04-06T05:31:02.781Z,44.45
2023-04-06T05:33:35.285Z,44.52
2023-04-06T05:36:15.145Z,44.57
2023-04-06T05:38:46.065Z,44.40
2023-04-06T05:41:31.873Z,44.36
2023-04-06T05:43:59.309Z,44.21
2023-04-06T05:46:26.952Z,44.20
2023-04-06T05:48:54.763Z,44.04
2023-04-06T05:51:25.398Z,43.86
2023-04-06T05:53:52.313Z,43.98
2023-04-06T05:56:19.587Z,43.86
2023-04-06T05:58:46.819Z,43.85
2023-04-06T06:01:16.643Z,43.94
2023-04-06T06:03:47.372Z,43.81
2023-04-06T06:06:14.941Z,43.74
2023-04-06T06:08:53.984Z,43.68
2023-04-06T06:11:20.949Z,43.72
2023-04-06T06:13:49.204Z,43.81
2023-04-06T06:16:16.062Z,43.86
2023-04-06T06:18:49.457Z,43.86
2023-04-06T06:21:17.526Z,43.96
2023-04-06T06:23:45.092Z,43.88
2023-04-06T06:26:15.659Z,43.87
2023-04-06T06:28:44.337Z,43.66
2023-04-06T06:31:15.951Z,43.68
2023-04-06T06:33:44.676Z,43.80
2023-04-06T06:36:11.782Z,43.70
2023-04-06T06:38:39.340Z,43.49
2023-04-06T06:41:11.920Z,43.40
2023-04-06T06:43:39.154Z,43.20
2023-04-06T06:46:08.789Z,42.98
2023-04-06T06:48:36.268Z,42.88
2023-04-06T06:51:03.673Z,42.59
2023-04-06T06:53:31.180Z,42.46
2023-04-06T06:55:58.105Z,42.25
2023-04-06T06:58:25.015Z,42.06
2023-04-06T07:00:57.299Z,42.14
2023-04-06T07:03:24.308Z,41.88
2023-04-06T07:05:54.454Z,41.82
2023-04-06T07:08:23.620Z,41.85
2023-04-06T07:10:52.721Z,41.92
2023-04-06T07:13:24.417Z,41.39
2023-04-06T07:15:59.117Z,41.28
2023-04-06T07:18:26.092Z,41.04
2023-04-06T07:20:52.971Z,41.42
2023-04-06T07:23:20.232Z,41.52
2023-04-06T07:25:47.194Z,41.35
2023-04-06T07:28:16.778Z,41.75
2023-04-06T07:30:44.514Z,41.55
2023-04-06T07:33:19.660Z,41.40
2023-04-06T07:36:13.060Z,41.81
2023-04-06T07:38:41.332Z,42.06
2023-04-06T07:41:08.174Z,42.02
2023-04-06T07:43:36.371Z,41.88
2023-04-06T07:46:04.402Z,41.62
2023-04-06T07:48:35.576Z,41.56
2023-04-06T07:51:03.659Z,41.59
2023-04-06T07:53:31.402Z,41.83
2023-04-06T07:55:59.474Z,41.86
2023-04-06T07:58:26.617Z,41.73
2023-04-06T08:00:58.067Z,41.73
2023-04-06T08:03:26.978Z,41.72
2023-04-06T08:05:54.434Z,41.65
2023-04-06T08:08:22.714Z,42.15
2023-04-06T08:10:49.781Z,41.86
2023-04-06T08:13:16.804Z,41.80
2023-04-06T08:15:49.306Z,41.97
2023-04-06T08:18:17.199Z,42.00
2023-04-06T08:20:44.116Z,42.12
2023-04-06T08:23:11.455Z,41.97
2023-04-06T08:25:38.405Z,42.19
2023-04-06T08:28:05.986Z,42.39
2023-04-06T08:30:33.349Z,42.31
2023-04-06T08:33:11.342Z,42.64
2023-04-06T08:35:38.310Z,42.28
2023-04-06T08:38:06.361Z,42.19
2023-04-06T08:40:37.895Z,42.12
2023-04-06T08:43:10.213Z,42.42
2023-04-06T08:45:38.812Z,41.94
2023-04-06T08:48:07.126Z,41.78
2023-04-06T08:50:36.268Z,41.83
2023-04-06T08:53:03.123Z,41.87
2023-04-06T08:55:30.383Z,42.14
2023-04-06T08:57:57.200Z,42.26
2023-04-06T09:00:24.120Z,42.36
2023-04-06T09:02:54.193Z,42.34
2023-04-06T09:05:21.395Z,42.56
2023-04-06T09:07:48.356Z,42.67
2023-04-06T09:10:16.009Z,42.59
2023-04-06T09:12:43.292Z,42.30
2023-04-06T09:15:24.171Z,42.31
2023-04-06T09:17:54.284Z,42.43
2023-04-06T09:20:28.709Z,42.42
2023-04-06T09:22:56.033Z,42.46
2023-04-06T09:25:23.865Z,42.52
2023-04-06T09:28:00.075Z,42.61
2023-04-06T09:30:27.550Z,43.00
2023-04-06T09:32:56.530Z,43.26
2023-04-06T09:35:24.068Z,44.19
2023-04-06T09:37:52.162Z,45.25
2023-04-06T09:40:19.521Z,46.39
2023-04-06T09:42:47.381Z,46.92
2023-04-06T09:45:14.209Z,47.11
2023-04-06T09:47:45.786Z,47.16
2023-04-06T09:50:16.739Z,47.01
2023-04-06T09:52:48.900Z,47.04
2023-04-06T09:55:21.204Z,47.26
2023-04-06T09:57:57.325Z,48.17
2023-04-06T10:00:25.023Z,48.81
2023-04-06T10:03:19.327Z,49.80
2023-04-06T10:05:58.998Z,50.37
2023-04-06T10:08:29.658Z,50.95
2023-04-06T10:11:01.301Z,51.49
2023-04-06T10:13:28.478Z,51.81
2023-04-06T10:15:55.400Z,51.86
2023-04-06T10:18:28.690Z,52.01
2023-04-06T10:20:58.118Z,52.21
2023-04-06T10:23:44.714Z,52.38
2023-04-06T10:26:16.927Z,52.51
2023-04-06T10:28:44.792Z,52.40
2023-04-06T10:31:12.714Z,52.34
2023-04-06T10:33:41.240Z,52.34
2023-04-06T10:36:14.413Z,52.16
2023-04-06T10:38:42.197Z,52.18
2023-04-06T10:41:12.682Z,52.00
2023-04-06T10:43:41.539Z,52.14
2023-04-06T10:46:09.497Z,52.25
2023-04-06T10:48:47.069Z,52.30
2023-04-06T10:51:18.322Z,52.18
2023-04-06T10:53:49.962Z,52.15
2023-04-06T10:56:18.464Z,52.35
2023-04-06T10:58:52.744Z,52.40
2023-04-06T11:01:21.580Z,52.19
2023-04-06T11:03:50.995Z,51.91
2023-04-06T11:06:21.854Z,51.68
2023-04-06T11:08:50.062Z,51.63
2023-04-06T11:11:18.955Z,51.32
2023-04-06T11:13:55.321Z,51.47
2023-04-06T11:16:22.411Z,51.09
2023-04-06T11:18:52.481Z,50.71
2023-04-06T11:21:49.076Z,50.83
2023-04-06T11:24:19.685Z,50.60
2023-04-06T11:26:49.107Z,50.61
2023-04-06T11:29:17.983Z,50.56
2023-04-06T11:31:49.189Z,50.31
2023-04-06T11:34:23.328Z,49.93
2023-04-06T11:36:55.073Z,49.27
2023-04-06T11:39:24.102Z,49.40
2023-04-06T11:41:54.745Z,49.45
2023-04-06T11:44:49.515Z,49.44
2023-04-06T11:47:18.737Z,49.61
2023-04-06T11:49:46.438Z,49.82
2023-04-06T11:52:21.001Z,49.82
2023-04-06T11:54:49.102Z,49.92
2023-04-06T11:57:17.161Z,50.10
2023-04-06T11:59:44.705Z,49.97
2023-04-06T12:02:11.424Z,50.18
2023-04-06T12:04:39.752Z,50.38
2023-04-06T12:07:06.955Z,50.23
2023-04-06T12:09:35.175Z,50.33
2023-04-06T12:12:02.476Z,50.13
2023-04-06T12:14:31.052Z,49.92
2023-04-06T12:16:58.405Z,50.42
2023-04-06T12:19:26.327Z,50.28
2023-04-06T12:21:56.261Z,49.84
2023-04-06T12:24:23.741Z,49.58
2023-04-06T12:26:59.587Z,49.49
2023-04-06T12:29:34.081Z,49.12
2023-04-06T12:32:02.186Z,49.28
2023-04-06T12:34:29.300Z,49.30
2023-04-06T12:36:56.682Z,49.00
2023-04-06T12:39:28.024Z,48.78
2023-04-06T12:41:56.668Z,48.82
2023-04-06T12:44:25.519Z,48.83
2023-04-06T12:46:53.753Z,48.85
2023-04-06T12:49:22.268Z,48.66
2023-04-06T12:51:56.572Z,48.84
2023-04-06T12:54:23.341Z,48.93
2023-04-06T12:56:50.210Z,48.85
2023-04-06T12:59:16.982Z,48.55
2023-04-06T13:01:44.622Z,48.23
2023-04-06T13:04:11.617Z,48.23
2023-04-06T13:06:40.743Z,48.27
2023-04-06T13:09:08.371Z,48.25
2023-04-06T13:11:36.206Z,48.21
2023-04-06T13:14:03.820Z,48.07
2023-04-06T13:16:31.396Z,48.00
2023-04-06T13:18:58.485Z,47.97
2023-04-06T13:21:33.880Z,47.80
2023-04-06T13:24:00.811Z,47.75
2023-04-06T13:26:29.084Z,47.90
2023-04-06T13:28:57.292Z,47.98
2023-04-06T13:31:24.360Z,47.52
2023-04-06T13:33:51.662Z,47.58
2023-04-06T13:36:18.561Z,47.72
2023-04-06T13:38:47.243Z,47.91
2023-04-06T13:41:21.425Z,47.73
2023-04-06T13:43:49.186Z,47.60
2023-04-06T13:46:17.051Z,47.60
2023-04-06T13:48:45.085Z,47.54
2023-04-06T13:51:12.507Z,47.15
2023-04-06T13:53:41.756Z,47.10
2023-04-06T13:56:08.830Z,47.05
2023-04-06T13:58:38.578Z,47.31
2023-04-06T14:01:06.835Z,47.33
2023-04-06T14:03:34.062Z,47.53
2023-04-06T14:06:05.048Z,47.42
2023-04-06T14:08:36.625Z,47.14
2023-04-06T14:11:03.387Z,46.93
2023-04-06T14:13:30.483Z,47.37
2023-04-06T14:15:57.767Z,47.66
2023-04-06T14:18:26.615Z,47.91
2023-04-06T14:20:56.542Z,48.08
2023-04-06T14:23:26.158Z,48.27
2023-04-06T14:26:04.873Z,48.49
2023-04-06T14:28:36.375Z,48.29
2023-04-06T14:31:10.901Z,48.09
2023-04-06T14:33:38.243Z,47.79
2023-04-06T14:36:07.745Z,47.64
2023-04-06T14:38:34.740Z,47.78
2023-04-06T14:41:05.080Z,47.94
2023-04-06T14:43:34.208Z,48.17
2023-04-06T14:46:01.848Z,48.28
2023-04-06T14:48:28.945Z,48.35
2023-04-06T14:50:56.227Z,48.67
2023-04-06T14:53:24.116Z,48.76
2023-04-06T14:55:51.971Z,48.92
2023-04-06T14:58:19.851Z,48.86
2023-04-06T15:00:47.152Z,48.89
2023-04-06T15:03:15.140Z,48.69
2023-04-06T15:05:42.481Z,48.54
2023-04-06T15:08:10.260Z,48.43
2023-04-06T15:10:37.082Z,48.57
2023-04-06T15:13:10.913Z,48.65
2023-04-06T15:15:39.338Z,48.43
2023-04-06T15:18:07.183Z,48.25
2023-04-06T15:20:36.738Z,48.49
2023-04-06T15:23:03.767Z,48.53
2023-04-06T15:28:39.215Z,48.42
2023-04-06T15:31:24.464Z,48.63
2023-04-06T15:34:03.231Z,48.82
2023-04-06T15:36:31.071Z,48.81
2023-04-06T15:46:40.182Z,48.31
2023-04-06T15:49:08.481Z,48.22
2023-04-06T15:51:37.359Z,48.15
2023-04-06T15:54:06.240Z,47.77
2023-04-06T15:56:34.503Z,47.80
2023-04-06T15:59:04.439Z,47.90
2023-04-06T16:01:33.911Z,47.91
2023-04-06T16:04:06.819Z,47.93
2023-04-06T16:06:35.464Z,47.72
2023-04-06T16:09:04.892Z,47.74
2023-04-06T16:11:33.294Z,47.78
2023-04-06T16:14:01.770Z,48.04
2023-04-06T16:18:35.718Z,51.44
2023-04-06T16:21:05.597Z,49.33
2023-04-06T16:23:34.611Z,48.43
2023-04-06T16:26:03.084Z,48.45
2023-04-06T16:28:33.117Z,48.22
2023-04-06T16:31:01.662Z,48.44
2023-04-06T16:33:30.954Z,48.82
2023-04-06T16:35:59.104Z,48.93
2023-04-06T16:38:35.510Z,49.10
2023-04-06T16:41:03.919Z,49.17
2023-04-06T16:43:33.225Z,49.38
2023-04-06T16:46:01.954Z,49.38
2023-04-06T16:48:30.728Z,49.61
2023-04-06T16:50:59.146Z,49.52
2023-04-06T16:53:27.188Z,49.64
2023-04-06T16:55:55.430Z,49.62
2023-04-06T16:58:24.200Z,49.67
2023-04-06T17:00:52.611Z,49.54
2023-04-06T17:03:22.178Z,49.50
2023-04-06T17:05:50.881Z,49.54
2023-04-06T17:08:19.642Z,49.60
2023-04-06T17:10:59.055Z,49.65
2023-04-06T17:13:34.541Z,49.70
2023-04-06T17:16:03.658Z,49.76
2023-04-06T17:18:31.794Z,49.81
2023-04-06T17:21:07.544Z,49.82
2023-04-06T17:23:36.970Z,49.74
2023-04-06T17:26:06.274Z,49.56
2023-04-06T17:28:35.913Z,49.63
2023-04-06T17:31:11.684Z,49.64
2023-04-06T17:33:42.970Z,49.50
2023-04-06T17:36:12.475Z,49.49
2023-04-06T17:38:44.384Z,49.62
2023-04-06T17:41:13.761Z,49.91
2023-04-06T17:43:42.457Z,50.06
2023-04-06T17:46:11.003Z,50.01
2023-04-06T17:48:39.376Z,50.04
2023-04-06T17:51:07.426Z,50.11
2023-04-06T17:53:37.180Z,50.04
2023-04-06T17:56:06.335Z,49.90
2023-04-06T17:58:35.640Z,49.59
2023-04-06T18:01:08.783Z,49.48
2023-04-06T18:03:39.452Z,49.22
2023-04-06T18:06:14.692Z,49.22
2023-04-06T18:08:42.832Z,49.16
2023-04-06T18:11:18.568Z,49.13
2023-04-06T18:13:46.789Z,48.95
2023-04-06T18:16:17.752Z,49.35
2023-04-06T18:18:49.510Z,49.09
2023-04-06T18:21:17.673Z,48.89
2023-04-06T18:23:47.672Z,48.83
2023-04-06T18:26:18.100Z,47.47
2023-04-06T18:28:46.937Z,45.82
2023-04-06T18:31:15.122Z,45.84
2023-04-06T18:33:44.170Z,46.06
2023-04-06T18:36:12.595Z,46.30
2023-04-06T18:38:42.990Z,46.57
2023-04-06T18:41:11.222Z,46.87
2023-04-06T18:43:41.037Z,47.03
2023-04-06T18:46:19.295Z,47.03
2023-04-06T18:48:47.294Z,47.28
2023-04-06T18:51:15.522Z,47.59
2023-04-06T18:53:43.850Z,47.78
2023-04-06T18:56:16.442Z,47.80
2023-04-06T18:58:45.142Z,48.28
2023-04-06T19:01:30.128Z,49.00
2023-04-06T19:03:59.751Z,48.49
2023-04-06T19:06:28.322Z,47.43
2023-04-06T19:08:56.922Z,45.66
2023-04-06T19:11:26.372Z,44.54
2023-04-06T19:13:54.894Z,43.96
2023-04-06T19:16:26.584Z,43.81
2023-04-06T19:18:56.832Z,43.55
2023-04-06T19:21:26.341Z,43.37
2023-04-06T19:23:56.147Z,43.58
2023-04-06T19:26:30.481Z,43.73
2023-04-06T19:28:58.648Z,43.59
2023-04-06T19:31:28.249Z,43.68
2023-04-06T19:33:57.341Z,43.53
2023-04-06T19:36:26.397Z,43.89
2023-04-06T19:38:54.999Z,43.97
2023-04-06T19:41:24.229Z,43.36
2023-04-06T19:43:52.500Z,43.45
2023-04-06T19:46:21.791Z,43.21
2023-04-06T19:48:50.019Z,42.93
2023-04-06T19:51:18.678Z,42.81
2023-04-06T19:53:47.160Z,43.02
2023-04-06T19:56:16.316Z,42.89
2023-04-06T19:58:44.836Z,43.11
2023-04-06T20:01:13.037Z,42.78
2023-04-06T20:03:42.064Z,43.07
2023-04-06T20:06:11.183Z,43.09
2023-04-06T20:08:39.204Z,42.97
2023-04-06T20:11:09.731Z,43.10
2023-04-06T20:13:38.207Z,42.90
2023-04-06T20:16:06.304Z,42.81
2023-04-06T20:18:47.691Z,42.66
2023-04-06T20:21:16.238Z,42.41
2023-04-06T20:23:44.549Z,42.60
2023-04-06T20:26:12.659Z,42.50
2023-04-06T20:28:41.096Z,42.36
2023-04-06T20:31:16.410Z,42.40
2023-04-06T20:33:45.044Z,42.16
2023-04-06T20:36:13.180Z,42.10
2023-04-06T20:38:48.081Z,41.95
2023-04-06T20:41:16.554Z,41.71
2023-04-06T20:43:45.369Z,41.46
2023-04-06T20:46:18.266Z,41.51
2023-04-06T20:48:46.452Z,41.30
2023-04-06T20:51:19.507Z,41.44
2023-04-06T20:53:48.794Z,41.57
2023-04-06T20:56:22.012Z,41.69
2023-04-06T20:58:50.603Z,41.12
2023-04-06T21:01:18.652Z,41.19
2023-04-06T21:03:48.764Z,41.14
2023-04-06T21:06:17.442Z,41.44
2023-04-06T21:08:45.733Z,41.11
2023-04-06T21:11:15.765Z,41.12
2023-04-06T21:13:43.988Z,41.24
2023-04-06T21:16:17.655Z,41.31
2023-04-06T21:18:48.428Z,41.24
2023-04-06T21:21:16.618Z,41.35
2023-04-06T21:23:45.860Z,41.32
2023-04-06T21:26:14.380Z,41.25
2023-04-06T21:28:42.527Z,40.90
2023-04-06T21:31:11.032Z,40.81
2023-04-06T21:33:41.259Z,40.82
2023-04-06T21:36:09.684Z,40.71
2023-04-06T21:38:38.073Z,41.03
2023-04-06T21:41:07.317Z,40.95
2023-04-06T21:43:36.103Z,41.08
2023-04-06T21:46:04.336Z,40.82
2023-04-06T21:48:32.720Z,40.82
2023-04-06T21:51:00.855Z,40.68
2023-04-06T21:53:29.413Z,40.73
2023-04-06T21:55:57.484Z,40.28
2023-04-06T21:58:26.471Z,40.28
2023-04-06T22:00:54.596Z,40.57
2023-04-06T22:03:23.415Z,40.32
2023-04-06T22:05:52.759Z,39.99
2023-04-06T22:08:33.680Z,40.25
2023-04-06T22:11:10.091Z,40.23
2023-04-06T22:13:39.255Z,40.69
2023-04-06T22:16:07.632Z,41.10
2023-04-06T22:18:38.634Z,41.31
2023-04-06T22:21:08.554Z,41.42
2023-04-06T22:23:42.193Z,41.19
2023-04-06T22:26:13.552Z,41.05
2023-04-06T22:28:43.037Z,40.99
2023-04-06T22:31:11.176Z,41.20
2023-04-06T22:33:40.773Z,41.36
2023-04-06T22:36:09.278Z,41.62
2023-04-06T22:38:39.927Z,41.71
2023-04-06T22:41:08.588Z,41.74
2023-04-06T22:43:36.946Z,41.50
2023-04-06T22:46:05.768Z,41.53
2023-04-06T22:48:34.017Z,41.63
2023-04-06T22:51:02.754Z,41.12
2023-04-06T22:53:31.186Z,41.38
2023-04-06T22:56:00.046Z,41.34
2023-04-06T22:58:28.094Z,41.34
2023-04-06T23:01:00.688Z,41.33
2023-04-06T23:03:32.758Z,41.18
2023-04-06T23:06:01.335Z,41.04
2023-04-06T23:08:30.006Z,41.28
2023-04-06T23:11:01.196Z,41.47
2023-04-06T23:13:31.313Z,41.31
2023-04-06T23:15:59.314Z,41.47
2023-04-06T23:18:27.465Z,41.50
2023-04-06T23:20:56.141Z,41.70
2023-04-06T23:23:24.673Z,42.04
2023-04-06T23:25:53.352Z,42.08
2023-04-06T23:28:21.563Z,41.95
2023-04-06T23:30:49.709Z,41.72
2023-04-06T23:33:20.664Z,41.49
2023-04-06T23:35:49.787Z,41.30
2023-04-06T23:38:18.871Z,40.84
2023-04-06T23:40:46.895Z,40.70
2023-04-06T23:43:15.550Z,40.62
2023-04-06T23:45:43.776Z,40.45
2023-04-06T23:48:14.612Z,40.13
2023-04-06T23:50:43.131Z,40.11
2023-04-06T23:53:11.264Z,39.94
2023-04-06T23:55:41.355Z,39.80
2023-04-06T23:58:09.616Z,39.55
